sensor_id;sensor_type;location;lat;lon;timestamp;P1;durP1;ratioP1;P2;durP2;ratioP2
28862;SDS011;15994;51.796;13.006;2023-05-29T00:00:42;8.15;;;3.83;;
28862;SDS011;15994;51.796;13.006;2023-05-29T00:03:24;8.50;;;3.72;;
28862;SDS011;15994;51.796;13.006;2023-05-29T00:05:58;8.77;;;4.18;;
28862;SDS011;15994;51.796;13.006;2023-05-29T00:08:32;11.48;;;3.97;;
28862;SDS011;15994;51.796;13.006;2023-05-29T00:10:59;6.85;;;3.75;;
28862;SDS011;15994;51.796;13.006;2023-05-29T00:13:31;7.65;;;3.50;;
28862;SDS011;15994;51.796;13.006;2023-05-29T00:16:04;10.05;;;4.00;;
28862;SDS011;15994;51.796;13.006;2023-05-29T00:18:55;11.73;;;4.32;;
28862;SDS011;15994;51.796;13.006;2023-05-29T00:21:24;14.07;;;4.10;;
28862;SDS011;15994;51.796;13.006;2023-05-29T00:26:51;9.10;;;4.18;;
28862;SDS011;15994;51.796;13.006;2023-05-29T00:29:23;9.90;;;3.90;;
28862;SDS011;15994;51.796;13.006;2023-05-29T00:31:55;11.90;;;4.15;;
28862;SDS011;15994;51.796;13.006;2023-05-29T00:34:24;9.38;;;3.90;;
28862;SDS011;15994;51.796;13.006;2023-05-29T00:36:53;8.65;;;4.20;;
28862;SDS011;15994;51.796;13.006;2023-05-29T00:39:23;8.27;;;4.20;;
28862;SDS011;15994;51.796;13.006;2023-05-29T00:41:54;8.27;;;3.75;;
28862;SDS011;15994;51.796;13.006;2023-05-29T00:44:24;12.25;;;4.10;;
28862;SDS011;15994;51.796;13.006;2023-05-29T00:46:53;11.20;;;4.18;;
28862;SDS011;15994;51.796;13.006;2023-05-29T00:49:25;10.00;;;3.78;;
28862;SDS011;15994;51.796;13.006;2023-05-29T00:52:11;10.52;;;4.10;;
28862;SDS011;15994;51.796;13.006;2023-05-29T00:54:55;8.65;;;3.80;;
28862;SDS011;15994;51.796;13.006;2023-05-29T00:57:25;8.13;;;3.97;;
28862;SDS011;15994;51.796;13.006;2023-05-29T00:59:53;10.02;;;4.07;;
28862;SDS011;15994;51.796;13.006;2023-05-29T01:02:24;10.55;;;4.82;;
28862;SDS011;15994;51.796;13.006;2023-05-29T01:04:57;9.38;;;4.60;;
28862;SDS011;15994;51.796;13.006;2023-05-29T01:07:23;8.63;;;4.10;;
28862;SDS011;15994;51.796;13.006;2023-05-29T01:10:10;10.57;;;3.95;;
28862;SDS011;15994;51.796;13.006;2023-05-29T01:12:56;8.38;;;4.13;;
28862;SDS011;15994;51.796;13.006;2023-05-29T01:15:33;10.88;;;3.85;;
28862;SDS011;15994;51.796;13.006;2023-05-29T01:18:25;7.93;;;3.60;;
28862;SDS011;15994;51.796;13.006;2023-05-29T01:21:26;8.57;;;4.57;;
28862;SDS011;15994;51.796;13.006;2023-05-29T01:24:43;9.52;;;4.15;;
28862;SDS011;15994;51.796;13.006;2023-05-29T01:27:14;8.55;;;4.03;;
28862;SDS011;15994;51.796;13.006;2023-05-29T01:29:50;7.20;;;3.78;;
28862;SDS011;15994;51.796;13.006;2023-05-29T01:32:21;9.40;;;3.90;;
28862;SDS011;15994;51.796;13.006;2023-05-29T01:34:51;12.25;;;4.50;;
28862;SDS011;15994;51.796;13.006;2023-05-29T01:37:33;12.25;;;4.30;;
28862;SDS011;15994;51.796;13.006;2023-05-29T01:40:00;9.20;;;4.30;;
28862;SDS011;15994;51.796;13.006;2023-05-29T01:42:28;7.63;;;4.22;;
28862;SDS011;15994;51.796;13.006;2023-05-29T01:45:09;11.23;;;4.85;;
28862;SDS011;15994;51.796;13.006;2023-05-29T01:47:37;8.15;;;4.13;;
28862;SDS011;15994;51.796;13.006;2023-05-29T01:50:06;9.65;;;4.22;;
28862;SDS011;15994;51.796;13.006;2023-05-29T01:52:38;10.60;;;4.60;;
28862;SDS011;15994;51.796;13.006;2023-05-29T01:55:07;13.15;;;4.60;;
28862;SDS011;15994;51.796;13.006;2023-05-29T02:00:50;11.10;;;4.53;;
28862;SDS011;15994;51.796;13.006;2023-05-29T02:03:32;11.82;;;4.65;;
28862;SDS011;15994;51.796;13.006;2023-05-29T02:06:31;11.07;;;4.15;;
28862;SDS011;15994;51.796;13.006;2023-05-29T02:08:58;9.68;;;4.18;;
28862;SDS011;15994;51.796;13.006;2023-05-29T02:11:24;11.00;;;4.25;;
28862;SDS011;15994;51.796;13.006;2023-05-29T02:14:05;9.63;;;4.55;;
28862;SDS011;15994;51.796;13.006;2023-05-29T02:16:32;10.43;;;4.97;;
28862;SDS011;15994;51.796;13.006;2023-05-29T02:19:08;10.98;;;4.38;;
28862;SDS011;15994;51.796;13.006;2023-05-29T02:21:50;9.82;;;4.50;;
28862;SDS011;15994;51.796;13.006;2023-05-29T02:24:20;11.40;;;4.88;;
28862;SDS011;15994;51.796;13.006;2023-05-29T02:26:48;15.10;;;5.18;;
28862;SDS011;15994;51.796;13.006;2023-05-29T02:29:24;13.63;;;5.13;;
28862;SDS011;15994;51.796;13.006;2023-05-29T02:31:56;9.75;;;4.32;;
28862;SDS011;15994;51.796;13.006;2023-05-29T02:34:38;10.68;;;4.95;;
28862;SDS011;15994;51.796;13.006;2023-05-29T02:37:07;8.60;;;4.13;;
28862;SDS011;15994;51.796;13.006;2023-05-29T02:39:54;11.35;;;4.30;;
28862;SDS011;15994;51.796;13.006;2023-05-29T02:42:32;12.52;;;5.40;;
28862;SDS011;15994;51.796;13.006;2023-05-29T02:45:01;10.65;;;4.35;;
28862;SDS011;15994;51.796;13.006;2023-05-29T02:47:28;10.85;;;4.20;;
28862;SDS011;15994;51.796;13.006;2023-05-29T02:49:54;11.30;;;5.00;;
28862;SDS011;15994;51.796;13.006;2023-05-29T02:52:28;11.45;;;4.95;;
28862;SDS011;15994;51.796;13.006;2023-05-29T02:54:56;10.10;;;4.68;;
28862;SDS011;15994;51.796;13.006;2023-05-29T02:57:45;11.63;;;4.60;;
28862;SDS011;15994;51.796;13.006;2023-05-29T03:00:13;12.18;;;5.18;;
28862;SDS011;15994;51.796;13.006;2023-05-29T03:02:40;11.65;;;4.72;;
28862;SDS011;15994;51.796;13.006;2023-05-29T03:05:25;12.77;;;4.75;;
28862;SDS011;15994;51.796;13.006;2023-05-29T03:07:57;12.13;;;5.22;;
28862;SDS011;15994;51.796;13.006;2023-05-29T03:10:47;12.13;;;5.63;;
28862;SDS011;15994;51.796;13.006;2023-05-29T03:13:23;12.13;;;5.10;;
28862;SDS011;15994;51.796;13.006;2023-05-29T03:15:49;14.85;;;5.07;;
28862;SDS011;15994;51.796;13.006;2023-05-29T03:18:21;13.25;;;4.85;;
28862;SDS011;15994;51.796;13.006;2023-05-29T03:21:04;12.93;;;4.85;;
28862;SDS011;15994;51.796;13.006;2023-05-29T03:23:42;11.52;;;4.88;;
28862;SDS011;15994;51.796;13.006;2023-05-29T03:26:09;10.45;;;5.25;;
28862;SDS011;15994;51.796;13.006;2023-05-29T03:28:38;13.85;;;5.22;;
28862;SDS011;15994;51.796;13.006;2023-05-29T03:31:05;11.48;;;4.95;;
28862;SDS011;15994;51.796;13.006;2023-05-29T03:33:46;14.27;;;5.13;;
28862;SDS011;15994;51.796;13.006;2023-05-29T03:36:13;11.77;;;4.72;;
28862;SDS011;15994;51.796;13.006;2023-05-29T03:38:41;10.82;;;4.60;;
28862;SDS011;15994;51.796;13.006;2023-05-29T03:41:09;14.50;;;4.95;;
28862;SDS011;15994;51.796;13.006;2023-05-29T03:43:41;10.48;;;4.53;;
28862;SDS011;15994;51.796;13.006;2023-05-29T03:46:08;14.30;;;5.65;;
28862;SDS011;15994;51.796;13.006;2023-05-29T03:48:35;11.77;;;4.57;;
28862;SDS011;15994;51.796;13.006;2023-05-29T03:51:02;14.18;;;5.60;;
28862;SDS011;15994;51.796;13.006;2023-05-29T03:53:29;15.35;;;5.30;;
28862;SDS011;15994;51.796;13.006;2023-05-29T03:55:56;13.60;;;4.78;;
28862;SDS011;15994;51.796;13.006;2023-05-29T03:58:25;13.77;;;5.32;;
28862;SDS011;15994;51.796;13.006;2023-05-29T04:00:51;9.52;;;4.53;;
28862;SDS011;15994;51.796;13.006;2023-05-29T04:03:18;13.25;;;5.30;;
28862;SDS011;15994;51.796;13.006;2023-05-29T04:05:45;13.88;;;5.10;;
28862;SDS011;15994;51.796;13.006;2023-05-29T04:08:12;14.13;;;4.80;;
28862;SDS011;15994;51.796;13.006;2023-05-29T04:10:39;7.90;;;4.65;;
28862;SDS011;15994;51.796;13.006;2023-05-29T04:13:06;12.10;;;5.13;;
28862;SDS011;15994;51.796;13.006;2023-05-29T04:15:32;15.57;;;5.10;;
28862;SDS011;15994;51.796;13.006;2023-05-29T04:17:59;10.15;;;4.22;;
28862;SDS011;15994;51.796;13.006;2023-05-29T04:20:27;11.77;;;4.47;;
28862;SDS011;15994;51.796;13.006;2023-05-29T04:22:53;12.02;;;4.57;;
28862;SDS011;15994;51.796;13.006;2023-05-29T04:25:20;13.27;;;4.93;;
28862;SDS011;15994;51.796;13.006;2023-05-29T04:27:49;11.65;;;4.65;;
28862;SDS011;15994;51.796;13.006;2023-05-29T04:30:17;11.23;;;4.45;;
28862;SDS011;15994;51.796;13.006;2023-05-29T04:32:44;10.20;;;4.40;;
28862;SDS011;15994;51.796;13.006;2023-05-29T04:35:11;12.50;;;4.68;;
28862;SDS011;15994;51.796;13.006;2023-05-29T04:37:39;13.25;;;4.53;;
28862;SDS011;15994;51.796;13.006;2023-05-29T04:40:09;14.50;;;4.78;;
28862;SDS011;15994;51.796;13.006;2023-05-29T04:42:36;10.27;;;3.92;;
28862;SDS011;15994;51.796;13.006;2023-05-29T04:45:04;13.35;;;4.75;;
28862;SDS011;15994;51.796;13.006;2023-05-29T04:47:32;11.77;;;4.72;;
28862;SDS011;15994;51.796;13.006;2023-05-29T04:49:59;10.18;;;4.80;;
28862;SDS011;15994;51.796;13.006;2023-05-29T04:52:26;13.23;;;5.07;;
28862;SDS011;15994;51.796;13.006;2023-05-29T04:54:56;12.23;;;4.53;;
28862;SDS011;15994;51.796;13.006;2023-05-29T04:57:23;11.45;;;4.60;;
28862;SDS011;15994;51.796;13.006;2023-05-29T04:59:50;13.38;;;5.20;;
28862;SDS011;15994;51.796;13.006;2023-05-29T05:02:17;16.83;;;5.45;;
28862;SDS011;15994;51.796;13.006;2023-05-29T05:04:44;12.27;;;4.72;;
28862;SDS011;15994;51.796;13.006;2023-05-29T05:07:12;10.25;;;4.60;;
28862;SDS011;15994;51.796;13.006;2023-05-29T05:09:40;10.85;;;4.97;;
28862;SDS011;15994;51.796;13.006;2023-05-29T05:12:08;13.82;;;4.55;;
28862;SDS011;15994;51.796;13.006;2023-05-29T05:14:35;9.88;;;4.45;;
28862;SDS011;15994;51.796;13.006;2023-05-29T05:17:03;17.38;;;4.32;;
28862;SDS011;15994;51.796;13.006;2023-05-29T05:19:29;11.52;;;4.43;;
28862;SDS011;15994;51.796;13.006;2023-05-29T05:21:57;12.25;;;4.20;;
28862;SDS011;15994;51.796;13.006;2023-05-29T05:24:24;11.95;;;4.28;;
28862;SDS011;15994;51.796;13.006;2023-05-29T05:26:51;12.70;;;4.60;;
28862;SDS011;15994;51.796;13.006;2023-05-29T05:29:18;11.60;;;4.60;;
28862;SDS011;15994;51.796;13.006;2023-05-29T05:31:45;11.27;;;4.07;;
28862;SDS011;15994;51.796;13.006;2023-05-29T05:34:12;8.88;;;4.10;;
28862;SDS011;15994;51.796;13.006;2023-05-29T05:36:39;11.52;;;4.40;;
28862;SDS011;15994;51.796;13.006;2023-05-29T05:39:06;12.52;;;4.65;;
28862;SDS011;15994;51.796;13.006;2023-05-29T05:41:34;12.90;;;4.82;;
28862;SDS011;15994;51.796;13.006;2023-05-29T05:44:01;11.95;;;4.47;;
28862;SDS011;15994;51.796;13.006;2023-05-29T05:46:27;9.35;;;4.10;;
28862;SDS011;15994;51.796;13.006;2023-05-29T05:48:55;10.75;;;4.65;;
28862;SDS011;15994;51.796;13.006;2023-05-29T05:51:23;13.02;;;4.30;;
28862;SDS011;15994;51.796;13.006;2023-05-29T05:53:50;11.38;;;4.80;;
28862;SDS011;15994;51.796;13.006;2023-05-29T05:56:17;13.93;;;4.20;;
28862;SDS011;15994;51.796;13.006;2023-05-29T05:58:44;11.90;;;4.40;;
28862;SDS011;15994;51.796;13.006;2023-05-29T06:01:11;9.52;;;3.60;;
28862;SDS011;15994;51.796;13.006;2023-05-29T06:03:38;13.40;;;4.50;;
28862;SDS011;15994;51.796;13.006;2023-05-29T06:06:05;12.18;;;3.97;;
28862;SDS011;15994;51.796;13.006;2023-05-29T06:08:33;11.32;;;4.30;;
28862;SDS011;15994;51.796;13.006;2023-05-29T06:11:00;8.82;;;3.75;;
28862;SDS011;15994;51.796;13.006;2023-05-29T06:13:27;9.48;;;3.83;;
28862;SDS011;15994;51.796;13.006;2023-05-29T06:15:54;11.82;;;4.10;;
28862;SDS011;15994;51.796;13.006;2023-05-29T06:18:21;12.70;;;4.30;;
28862;SDS011;15994;51.796;13.006;2023-05-29T06:20:48;13.43;;;4.32;;
28862;SDS011;15994;51.796;13.006;2023-05-29T06:23:15;24.58;;;4.75;;
28862;SDS011;15994;51.796;13.006;2023-05-29T06:25:42;9.43;;;4.05;;
28862;SDS011;15994;51.796;13.006;2023-05-29T06:28:09;11.00;;;4.40;;
28862;SDS011;15994;51.796;13.006;2023-05-29T06:30:35;10.88;;;4.10;;
28862;SDS011;15994;51.796;13.006;2023-05-29T06:33:02;7.60;;;3.85;;
28862;SDS011;15994;51.796;13.006;2023-05-29T06:35:29;9.02;;;4.00;;
28862;SDS011;15994;51.796;13.006;2023-05-29T06:37:56;10.10;;;3.80;;
28862;SDS011;15994;51.796;13.006;2023-05-29T06:40:23;9.93;;;3.90;;
28862;SDS011;15994;51.796;13.006;2023-05-29T06:42:50;9.85;;;4.10;;
28862;SDS011;15994;51.796;13.006;2023-05-29T06:45:16;9.98;;;3.80;;
28862;SDS011;15994;51.796;13.006;2023-05-29T06:47:43;10.70;;;3.85;;
28862;SDS011;15994;51.796;13.006;2023-05-29T06:50:10;12.75;;;4.18;;
28862;SDS011;15994;51.796;13.006;2023-05-29T06:52:37;7.97;;;3.60;;
28862;SDS011;15994;51.796;13.006;2023-05-29T06:55:05;8.38;;;3.30;;
28862;SDS011;15994;51.796;13.006;2023-05-29T06:57:32;8.93;;;3.53;;
28862;SDS011;15994;51.796;13.006;2023-05-29T06:59:59;6.68;;;2.90;;
28862;SDS011;15994;51.796;13.006;2023-05-29T07:02:26;11.07;;;3.80;;
28862;SDS011;15994;51.796;13.006;2023-05-29T07:04:52;8.27;;;3.42;;
28862;SDS011;15994;51.796;13.006;2023-05-29T07:07:20;9.23;;;3.50;;
28862;SDS011;15994;51.796;13.006;2023-05-29T07:09:46;8.73;;;3.20;;
28862;SDS011;15994;51.796;13.006;2023-05-29T07:12:13;9.15;;;3.53;;
28862;SDS011;15994;51.796;13.006;2023-05-29T07:14:40;6.80;;;3.13;;
28862;SDS011;15994;51.796;13.006;2023-05-29T07:17:07;9.50;;;3.20;;
28862;SDS011;15994;51.796;13.006;2023-05-29T07:19:34;11.95;;;3.50;;
28862;SDS011;15994;51.796;13.006;2023-05-29T07:22:01;8.90;;;3.70;;
28862;SDS011;15994;51.796;13.006;2023-05-29T07:24:28;7.72;;;3.60;;
28862;SDS011;15994;51.796;13.006;2023-05-29T07:26:54;7.65;;;3.63;;
28862;SDS011;15994;51.796;13.006;2023-05-29T07:29:21;6.10;;;2.88;;
28862;SDS011;15994;51.796;13.006;2023-05-29T07:31:49;7.38;;;3.00;;
28862;SDS011;15994;51.796;13.006;2023-05-29T07:34:17;9.07;;;3.53;;
28862;SDS011;15994;51.796;13.006;2023-05-29T07:36:58;9.00;;;3.40;;
28862;SDS011;15994;51.796;13.006;2023-05-29T07:39:33;7.75;;;3.10;;
28862;SDS011;15994;51.796;13.006;2023-05-29T07:42:01;7.38;;;3.28;;
28862;SDS011;15994;51.796;13.006;2023-05-29T07:44:28;5.90;;;2.92;;
28862;SDS011;15994;51.796;13.006;2023-05-29T07:46:55;7.82;;;3.45;;
28862;SDS011;15994;51.796;13.006;2023-05-29T07:49:22;8.00;;;3.17;;
28862;SDS011;15994;51.796;13.006;2023-05-29T07:51:49;7.03;;;2.92;;
28862;SDS011;15994;51.796;13.006;2023-05-29T07:54:16;6.18;;;2.90;;
28862;SDS011;15994;51.796;13.006;2023-05-29T07:56:45;11.85;;;3.22;;
28862;SDS011;15994;51.796;13.006;2023-05-29T07:59:12;5.00;;;2.67;;
28862;SDS011;15994;51.796;13.006;2023-05-29T08:01:39;6.22;;;2.90;;
28862;SDS011;15994;51.796;13.006;2023-05-29T08:04:07;6.35;;;2.75;;
28862;SDS011;15994;51.796;13.006;2023-05-29T08:06:34;6.80;;;2.40;;
28862;SDS011;15994;51.796;13.006;2023-05-29T08:09:01;8.18;;;2.60;;
28862;SDS011;15994;51.796;13.006;2023-05-29T08:11:30;5.50;;;2.70;;
28862;SDS011;15994;51.796;13.006;2023-05-29T08:13:57;6.18;;;2.55;;
28862;SDS011;15994;51.796;13.006;2023-05-29T08:16:24;5.10;;;2.50;;
28862;SDS011;15994;51.796;13.006;2023-05-29T08:18:52;6.57;;;3.03;;
28862;SDS011;15994;51.796;13.006;2023-05-29T08:21:20;5.32;;;2.50;;
28862;SDS011;15994;51.796;13.006;2023-05-29T08:23:46;7.53;;;2.40;;
28862;SDS011;15994;51.796;13.006;2023-05-29T08:26:13;6.70;;;2.60;;
28862;SDS011;15994;51.796;13.006;2023-05-29T08:28:41;7.00;;;2.47;;
28862;SDS011;15994;51.796;13.006;2023-05-29T08:31:08;5.40;;;2.58;;
28862;SDS011;15994;51.796;13.006;2023-05-29T08:33:35;5.60;;;2.58;;
28862;SDS011;15994;51.796;13.006;2023-05-29T08:36:02;6.97;;;2.95;;
28862;SDS011;15994;51.796;13.006;2023-05-29T08:38:29;8.77;;;2.53;;
28862;SDS011;15994;51.796;13.006;2023-05-29T08:40:56;5.43;;;2.40;;
28862;SDS011;15994;51.796;13.006;2023-05-29T08:43:23;5.75;;;2.20;;
28862;SDS011;15994;51.796;13.006;2023-05-29T08:45:53;4.30;;;2.45;;
28862;SDS011;15994;51.796;13.006;2023-05-29T08:48:24;4.80;;;2.45;;
28862;SDS011;15994;51.796;13.006;2023-05-29T08:50:53;5.32;;;2.60;;
28862;SDS011;15994;51.796;13.006;2023-05-29T08:53:22;4.82;;;2.65;;
28862;SDS011;15994;51.796;13.006;2023-05-29T08:55:50;8.35;;;2.60;;
28862;SDS011;15994;51.796;13.006;2023-05-29T08:58:20;6.05;;;2.42;;
28862;SDS011;15994;51.796;13.006;2023-05-29T09:00:49;5.60;;;2.40;;
28862;SDS011;15994;51.796;13.006;2023-05-29T09:03:19;6.30;;;2.65;;
28862;SDS011;15994;51.796;13.006;2023-05-29T09:05:48;5.88;;;2.42;;
28862;SDS011;15994;51.796;13.006;2023-05-29T09:08:15;4.40;;;2.25;;
28862;SDS011;15994;51.796;13.006;2023-05-29T09:10:44;6.78;;;2.30;;
28862;SDS011;15994;51.796;13.006;2023-05-29T09:13:11;7.10;;;2.20;;
28862;SDS011;15994;51.796;13.006;2023-05-29T09:15:39;7.30;;;2.40;;
28862;SDS011;15994;51.796;13.006;2023-05-29T09:18:08;4.55;;;2.30;;
28862;SDS011;15994;51.796;13.006;2023-05-29T09:20:35;6.28;;;2.45;;
28862;SDS011;15994;51.796;13.006;2023-05-29T09:23:04;7.90;;;2.70;;
28862;SDS011;15994;51.796;13.006;2023-05-29T09:25:32;7.10;;;2.20;;
28862;SDS011;15994;51.796;13.006;2023-05-29T09:28:06;5.80;;;2.72;;
28862;SDS011;15994;51.796;13.006;2023-05-29T09:33:13;6.82;;;2.67;;
28862;SDS011;15994;51.796;13.006;2023-05-29T09:35:41;4.70;;;2.33;;
28862;SDS011;15994;51.796;13.006;2023-05-29T09:38:13;6.43;;;2.35;;
28862;SDS011;15994;51.796;13.006;2023-05-29T09:40:41;5.85;;;2.50;;
28862;SDS011;15994;51.796;13.006;2023-05-29T09:43:14;7.18;;;2.50;;
28862;SDS011;15994;51.796;13.006;2023-05-29T09:45:43;6.97;;;2.47;;
28862;SDS011;15994;51.796;13.006;2023-05-29T09:48:12;7.28;;;2.60;;
28862;SDS011;15994;51.796;13.006;2023-05-29T09:50:43;6.78;;;2.50;;
28862;SDS011;15994;51.796;13.006;2023-05-29T09:53:20;6.05;;;2.33;;
28862;SDS011;15994;51.796;13.006;2023-05-29T09:55:49;6.60;;;2.72;;
28862;SDS011;15994;51.796;13.006;2023-05-29T09:58:18;5.45;;;2.58;;
28862;SDS011;15994;51.796;13.006;2023-05-29T10:00:45;6.53;;;2.50;;
28862;SDS011;15994;51.796;13.006;2023-05-29T10:03:13;5.88;;;2.40;;
28862;SDS011;15994;51.796;13.006;2023-05-29T10:05:41;6.82;;;2.28;;
28862;SDS011;15994;51.796;13.006;2023-05-29T10:08:08;7.05;;;2.53;;
28862;SDS011;15994;51.796;13.006;2023-05-29T10:10:42;5.30;;;2.50;;
28862;SDS011;15994;51.796;13.006;2023-05-29T10:13:13;6.38;;;2.20;;
28862;SDS011;15994;51.796;13.006;2023-05-29T10:15:44;5.82;;;2.40;;
28862;SDS011;15994;51.796;13.006;2023-05-29T10:18:23;4.13;;;2.15;;
28862;SDS011;15994;51.796;13.006;2023-05-29T10:20:54;8.07;;;2.60;;
28862;SDS011;15994;51.796;13.006;2023-05-29T10:23:24;5.43;;;2.15;;
28862;SDS011;15994;51.796;13.006;2023-05-29T10:25:52;5.85;;;2.03;;
28862;SDS011;15994;51.796;13.006;2023-05-29T10:28:21;9.38;;;2.60;;
28862;SDS011;15994;51.796;13.006;2023-05-29T10:31:00;5.45;;;2.65;;
28862;SDS011;15994;51.796;13.006;2023-05-29T10:36:22;5.15;;;2.30;;
28862;SDS011;15994;51.796;13.006;2023-05-29T10:38:53;5.72;;;2.30;;
28862;SDS011;15994;51.796;13.006;2023-05-29T10:43:56;4.85;;;2.30;;
28862;SDS011;15994;51.796;13.006;2023-05-29T10:49:16;6.82;;;2.70;;
28862;SDS011;15994;51.796;13.006;2023-05-29T10:51:43;7.22;;;2.95;;
28862;SDS011;15994;51.796;13.006;2023-05-29T10:54:12;6.10;;;2.60;;
28862;SDS011;15994;51.796;13.006;2023-05-29T10:56:41;5.15;;;2.63;;
28862;SDS011;15994;51.796;13.006;2023-05-29T10:59:11;6.07;;;2.50;;
28862;SDS011;15994;51.796;13.006;2023-05-29T11:01:39;6.78;;;2.45;;
28862;SDS011;15994;51.796;13.006;2023-05-29T11:06:42;5.00;;;2.30;;
28862;SDS011;15994;51.796;13.006;2023-05-29T11:12:11;6.07;;;2.78;;
28862;SDS011;15994;51.796;13.006;2023-05-29T11:14:44;5.07;;;2.85;;
28862;SDS011;15994;51.796;13.006;2023-05-29T11:20:06;4.43;;;2.40;;
28862;SDS011;15994;51.796;13.006;2023-05-29T11:25:10;4.70;;;2.40;;
28862;SDS011;15994;51.796;13.006;2023-05-29T11:27:40;7.20;;;2.90;;
28862;SDS011;15994;51.796;13.006;2023-05-29T11:30:07;6.90;;;2.85;;
28862;SDS011;15994;51.796;13.006;2023-05-29T11:32:35;6.80;;;2.72;;
28862;SDS011;15994;51.796;13.006;2023-05-29T11:35:05;5.60;;;2.50;;
28862;SDS011;15994;51.796;13.006;2023-05-29T11:37:35;6.35;;;2.30;;
28862;SDS011;15994;51.796;13.006;2023-05-29T11:40:05;6.30;;;2.35;;
28862;SDS011;15994;51.796;13.006;2023-05-29T11:42:34;6.90;;;2.70;;
28862;SDS011;15994;51.796;13.006;2023-05-29T11:45:12;6.55;;;2.58;;
28862;SDS011;15994;51.796;13.006;2023-05-29T11:47:57;5.93;;;2.63;;
28862;SDS011;15994;51.796;13.006;2023-05-29T11:50:26;4.45;;;2.72;;
28862;SDS011;15994;51.796;13.006;2023-05-29T11:52:55;7.47;;;2.60;;
28862;SDS011;15994;51.796;13.006;2023-05-29T11:55:24;5.25;;;2.67;;
28862;SDS011;15994;51.796;13.006;2023-05-29T11:57:59;4.43;;;2.53;;
28862;SDS011;15994;51.796;13.006;2023-05-29T12:00:31;5.72;;;2.67;;
28862;SDS011;15994;51.796;13.006;2023-05-29T12:03:01;7.97;;;2.60;;
28862;SDS011;15994;51.796;13.006;2023-05-29T12:05:33;5.05;;;2.85;;
28862;SDS011;15994;51.796;13.006;2023-05-29T12:08:22;4.50;;;2.45;;
28862;SDS011;15994;51.796;13.006;2023-05-29T12:10:50;5.63;;;2.80;;
28862;SDS011;15994;51.796;13.006;2023-05-29T12:13:19;4.47;;;2.90;;
28862;SDS011;15994;51.796;13.006;2023-05-29T12:15:46;4.85;;;2.53;;
28862;SDS011;15994;51.796;13.006;2023-05-29T12:18:15;6.40;;;2.28;;
28862;SDS011;15994;51.796;13.006;2023-05-29T12:20:42;4.80;;;2.38;;
28862;SDS011;15994;51.796;13.006;2023-05-29T12:23:11;7.18;;;2.40;;
28862;SDS011;15994;51.796;13.006;2023-05-29T12:25:38;5.60;;;2.83;;
28862;SDS011;15994;51.796;13.006;2023-05-29T12:28:05;5.75;;;2.58;;
28862;SDS011;15994;51.796;13.006;2023-05-29T12:30:36;6.93;;;2.47;;
28862;SDS011;15994;51.796;13.006;2023-05-29T12:33:05;5.53;;;2.33;;
28862;SDS011;15994;51.796;13.006;2023-05-29T12:35:32;5.88;;;2.47;;
28862;SDS011;15994;51.796;13.006;2023-05-29T12:38:06;5.50;;;2.50;;
28862;SDS011;15994;51.796;13.006;2023-05-29T12:40:34;7.03;;;2.55;;
28862;SDS011;15994;51.796;13.006;2023-05-29T12:43:04;10.02;;;2.40;;
28862;SDS011;15994;51.796;13.006;2023-05-29T12:45:34;7.25;;;2.47;;
28862;SDS011;15994;51.796;13.006;2023-05-29T12:48:07;10.27;;;2.58;;
28862;SDS011;15994;51.796;13.006;2023-05-29T12:50:37;7.20;;;2.30;;
28862;SDS011;15994;51.796;13.006;2023-05-29T12:53:12;5.65;;;2.40;;
28862;SDS011;15994;51.796;13.006;2023-05-29T12:55:49;4.40;;;2.33;;
28862;SDS011;15994;51.796;13.006;2023-05-29T12:58:22;7.45;;;2.03;;
28862;SDS011;15994;51.796;13.006;2023-05-29T13:00:52;5.05;;;2.25;;
28862;SDS011;15994;51.796;13.006;2023-05-29T13:03:20;4.68;;;2.20;;
28862;SDS011;15994;51.796;13.006;2023-05-29T13:05:51;7.63;;;2.45;;
28862;SDS011;15994;51.796;13.006;2023-05-29T13:08:21;5.63;;;2.10;;
28862;SDS011;15994;51.796;13.006;2023-05-29T13:10:48;6.75;;;2.42;;
28862;SDS011;15994;51.796;13.006;2023-05-29T13:13:15;6.53;;;2.58;;
28862;SDS011;15994;51.796;13.006;2023-05-29T13:15:43;5.88;;;2.72;;
28862;SDS011;15994;51.796;13.006;2023-05-29T13:18:10;6.00;;;2.20;;
28862;SDS011;15994;51.796;13.006;2023-05-29T13:20:38;6.63;;;2.35;;
28862;SDS011;15994;51.796;13.006;2023-05-29T13:23:05;4.57;;;2.05;;
28862;SDS011;15994;51.796;13.006;2023-05-29T13:25:35;5.43;;;2.80;;
28862;SDS011;15994;51.796;13.006;2023-05-29T13:28:03;6.47;;;2.40;;
28862;SDS011;15994;51.796;13.006;2023-05-29T13:30:30;4.28;;;2.20;;
28862;SDS011;15994;51.796;13.006;2023-05-29T13:32:57;6.28;;;2.75;;
28862;SDS011;15994;51.796;13.006;2023-05-29T13:35:24;4.13;;;2.28;;
28862;SDS011;15994;51.796;13.006;2023-05-29T13:37:51;4.97;;;2.25;;
28862;SDS011;15994;51.796;13.006;2023-05-29T13:40:17;4.75;;;2.30;;
28862;SDS011;15994;51.796;13.006;2023-05-29T13:42:46;4.75;;;2.50;;
28862;SDS011;15994;51.796;13.006;2023-05-29T13:45:13;4.60;;;2.40;;
28862;SDS011;15994;51.796;13.006;2023-05-29T13:47:39;4.90;;;2.47;;
28862;SDS011;15994;51.796;13.006;2023-05-29T13:50:07;4.88;;;2.55;;
28862;SDS011;15994;51.796;13.006;2023-05-29T13:52:34;4.40;;;2.10;;
28862;SDS011;15994;51.796;13.006;2023-05-29T13:55:01;4.32;;;2.30;;
28862;SDS011;15994;51.796;13.006;2023-05-29T13:57:33;4.60;;;2.28;;
28862;SDS011;15994;51.796;13.006;2023-05-29T14:00:01;4.97;;;2.42;;
28862;SDS011;15994;51.796;13.006;2023-05-29T14:02:30;3.90;;;2.20;;
28862;SDS011;15994;51.796;13.006;2023-05-29T14:04:57;6.72;;;2.72;;
28862;SDS011;15994;51.796;13.006;2023-05-29T14:07:24;7.75;;;2.58;;
28862;SDS011;15994;51.796;13.006;2023-05-29T14:09:51;6.32;;;2.40;;
28862;SDS011;15994;51.796;13.006;2023-05-29T14:12:18;4.07;;;2.38;;
28862;SDS011;15994;51.796;13.006;2023-05-29T14:14:45;5.35;;;2.10;;
28862;SDS011;15994;51.796;13.006;2023-05-29T14:17:13;5.30;;;2.50;;
28862;SDS011;15994;51.796;13.006;2023-05-29T14:19:41;5.38;;;2.72;;
28862;SDS011;15994;51.796;13.006;2023-05-29T14:22:10;7.03;;;2.65;;
28862;SDS011;15994;51.796;13.006;2023-05-29T14:24:37;4.88;;;2.22;;
28862;SDS011;15994;51.796;13.006;2023-05-29T14:27:07;5.78;;;2.80;;
28862;SDS011;15994;51.796;13.006;2023-05-29T14:29:33;8.07;;;2.45;;
28862;SDS011;15994;51.796;13.006;2023-05-29T14:32:00;6.45;;;2.60;;
28862;SDS011;15994;51.796;13.006;2023-05-29T14:34:27;7.43;;;2.80;;
28862;SDS011;15994;51.796;13.006;2023-05-29T14:36:54;5.85;;;2.42;;
28862;SDS011;15994;51.796;13.006;2023-05-29T14:39:20;4.30;;;2.47;;
28862;SDS011;15994;51.796;13.006;2023-05-29T14:41:47;4.85;;;2.33;;
28862;SDS011;15994;51.796;13.006;2023-05-29T14:44:15;4.40;;;2.47;;
28862;SDS011;15994;51.796;13.006;2023-05-29T14:46:42;6.32;;;2.47;;
28862;SDS011;15994;51.796;13.006;2023-05-29T14:49:08;6.50;;;2.72;;
28862;SDS011;15994;51.796;13.006;2023-05-29T14:51:35;4.07;;;2.20;;
28862;SDS011;15994;51.796;13.006;2023-05-29T14:54:03;5.90;;;2.53;;
28862;SDS011;15994;51.796;13.006;2023-05-29T14:56:30;4.80;;;2.63;;
28862;SDS011;15994;51.796;13.006;2023-05-29T14:58:57;4.80;;;2.40;;
28862;SDS011;15994;51.796;13.006;2023-05-29T15:01:24;5.47;;;2.60;;
28862;SDS011;15994;51.796;13.006;2023-05-29T15:03:50;8.98;;;2.85;;
28862;SDS011;15994;51.796;13.006;2023-05-29T15:06:17;5.88;;;2.50;;
28862;SDS011;15994;51.796;13.006;2023-05-29T15:08:49;6.43;;;2.85;;
28862;SDS011;15994;51.796;13.006;2023-05-29T15:11:16;5.47;;;2.72;;
28862;SDS011;15994;51.796;13.006;2023-05-29T15:13:44;6.07;;;2.70;;